createdAt,value
2018-12-05T00:02:06.367Z,1.83
2018-12-05T00:04:34.747Z,1.85
2018-12-05T00:07:02.221Z,1.86
2018-12-05T00:09:29.669Z,1.85
2018-12-05T00:11:57.105Z,1.86
2018-12-05T00:14:24.645Z,1.85
2018-12-05T00:16:52.146Z,1.81
2018-12-05T00:19:19.649Z,1.80
2018-12-05T00:21:47.140Z,1.76
2018-12-05T00:24:14.841Z,1.75
2018-12-05T00:26:42.316Z,1.76
2018-12-05T00:29:09.824Z,1.73
2018-12-05T00:31:37.300Z,1.73
2018-12-05T00:34:04.849Z,1.71
2018-12-05T00:36:32.319Z,1.71
2018-12-05T00:38:59.801Z,1.68
2018-12-05T00:41:27.343Z,1.68
2018-12-05T00:44:00.209Z,1.66
2018-12-05T00:46:27.665Z,1.64
2018-12-05T00:48:55.124Z,1.64
2018-12-05T00:51:22.663Z,1.63
2018-12-05T00:53:50.132Z,1.64
2018-12-05T00:56:17.598Z,1.66
2018-12-05T00:58:45.126Z,1.64
2018-12-05T01:01:12.599Z,1.64
2018-12-05T01:03:40.094Z,1.66
2018-12-05T01:06:08.237Z,1.66
2018-12-05T01:08:35.695Z,1.65
2018-12-05T01:11:04.017Z,1.63
2018-12-05T01:13:31.516Z,1.59
2018-12-05T01:15:59.067Z,1.50
2018-12-05T01:18:26.527Z,1.41
2018-12-05T01:20:54.024Z,1.47
2018-12-05T01:23:21.516Z,1.38
2018-12-05T01:25:48.968Z,1.39
2018-12-05T01:28:16.412Z,1.37
2018-12-05T01:30:43.857Z,1.32
2018-12-05T01:33:11.305Z,1.34
2018-12-05T01:35:38.770Z,1.37
2018-12-05T01:38:06.231Z,1.36
2018-12-05T01:40:33.700Z,1.36
2018-12-05T01:43:01.228Z,1.37
2018-12-05T01:45:28.701Z,1.37
2018-12-05T01:47:56.184Z,1.35
2018-12-05T01:50:23.668Z,1.35
2018-12-05T01:52:51.201Z,1.31
2018-12-05T01:55:18.691Z,1.32
2018-12-05T01:57:46.248Z,1.32
2018-12-05T02:00:14.056Z,1.31
2018-12-05T02:02:41.569Z,1.32
2018-12-05T02:05:09.709Z,1.33
2018-12-05T02:07:37.268Z,1.33
2018-12-05T02:10:05.549Z,1.31
2018-12-05T02:12:32.992Z,1.26
2018-12-05T02:15:00.848Z,1.25
2018-12-05T02:17:28.364Z,1.25
2018-12-05T02:19:55.871Z,1.20
2018-12-05T02:22:23.332Z,1.16
2018-12-05T02:24:50.788Z,1.19
2018-12-05T02:27:18.292Z,1.16
2018-12-05T02:29:51.320Z,1.15
2018-12-05T02:32:18.788Z,1.16
2018-12-05T02:34:46.722Z,1.14
2018-12-05T02:37:14.184Z,1.16
2018-12-05T02:39:41.905Z,1.16
2018-12-05T02:42:09.382Z,1.16
2018-12-05T02:44:36.867Z,1.17
2018-12-05T02:47:04.385Z,1.18
2018-12-05T02:49:31.883Z,1.21
2018-12-05T02:51:59.352Z,1.20
2018-12-05T02:54:27.592Z,1.20
2018-12-05T02:56:55.065Z,1.15
2018-12-05T02:59:22.537Z,1.15
2018-12-05T03:01:50.013Z,1.14
2018-12-05T03:04:17.501Z,1.14
2018-12-05T03:06:45.004Z,1.12
2018-12-05T03:09:12.449Z,1.12
2018-12-05T03:11:40.325Z,1.11
2018-12-05T03:14:07.807Z,1.12
2018-12-05T03:16:35.281Z,1.12
2018-12-05T03:19:02.757Z,1.15
2018-12-05T03:21:30.222Z,1.11
2018-12-05T03:23:57.691Z,1.12
2018-12-05T03:26:25.144Z,1.11
2018-12-05T03:28:52.593Z,1.09
2018-12-05T03:31:20.078Z,1.12
2018-12-05T03:33:47.565Z,1.03
2018-12-05T03:36:15.040Z,1.00
2018-12-05T03:38:42.519Z,1.00
2018-12-05T03:41:10.714Z,1.00
2018-12-05T03:43:38.257Z,0.96
2018-12-05T03:46:05.753Z,0.97
2018-12-05T03:48:33.221Z,0.96
2018-12-05T03:51:00.689Z,0.99
2018-12-05T03:53:28.177Z,0.99
2018-12-05T03:55:55.652Z,0.95
2018-12-05T03:58:23.465Z,0.87
2018-12-05T04:00:50.932Z,0.92
2018-12-05T04:03:18.405Z,0.84
2018-12-05T04:05:45.856Z,0.83
2018-12-05T04:08:13.324Z,0.85
2018-12-05T04:10:40.782Z,0.83
2018-12-05T04:13:08.262Z,0.82
2018-12-05T04:15:35.799Z,0.78
2018-12-05T04:18:03.279Z,0.75
2018-12-05T04:20:30.828Z,0.71
2018-12-05T04:22:58.300Z,0.73
2018-12-05T04:25:25.801Z,0.75
2018-12-05T04:27:53.237Z,0.69
2018-12-05T04:30:20.691Z,0.67
2018-12-05T04:32:48.165Z,0.63
2018-12-05T04:35:15.663Z,0.63
2018-12-05T04:37:43.472Z,0.63
2018-12-05T04:40:11.584Z,0.62
2018-12-05T04:42:39.058Z,0.56
2018-12-05T04:45:06.684Z,0.60
2018-12-05T04:47:34.187Z,0.57
2018-12-05T04:50:01.665Z,0.54
2018-12-05T04:52:29.146Z,0.53
2018-12-05T04:54:56.610Z,0.53
2018-12-05T04:57:24.068Z,0.50
2018-12-05T04:59:51.525Z,0.52
2018-12-05T05:02:19.000Z,0.52
2018-12-05T05:04:46.454Z,0.49
2018-12-05T05:07:13.924Z,0.42
2018-12-05T05:09:41.860Z,0.42
2018-12-05T05:12:09.483Z,0.49
2018-12-05T05:14:36.970Z,0.53
2018-12-05T05:17:04.485Z,0.58
2018-12-05T05:19:31.959Z,0.56
2018-12-05T05:21:59.404Z,0.59
2018-12-05T05:24:27.325Z,0.58
2018-12-05T05:26:54.781Z,0.62
2018-12-05T05:29:22.273Z,0.63
2018-12-05T05:31:49.759Z,0.61
2018-12-05T05:34:17.244Z,0.66
2018-12-05T05:36:44.737Z,0.64
2018-12-05T05:39:12.220Z,0.63
2018-12-05T05:41:39.696Z,0.64
2018-12-05T05:44:07.140Z,0.65
2018-12-05T05:46:34.589Z,0.66
2018-12-05T05:49:02.489Z,0.65
2018-12-05T05:51:29.999Z,0.67
2018-12-05T05:53:57.477Z,0.68
2018-12-05T05:56:24.934Z,0.61
2018-12-05T05:58:52.396Z,0.60
2018-12-05T06:01:19.834Z,0.51
2018-12-05T06:03:47.412Z,0.56
2018-12-05T06:06:15.457Z,0.58
2018-12-05T06:08:42.941Z,0.57
2018-12-05T06:11:10.401Z,0.59
2018-12-05T06:13:37.882Z,0.59
2018-12-05T06:16:05.359Z,0.62
2018-12-05T06:18:32.809Z,0.59
2018-12-05T06:21:00.275Z,0.63
2018-12-05T06:23:27.750Z,0.64
2018-12-05T06:25:55.235Z,0.59
2018-12-05T06:28:22.768Z,0.55
2018-12-05T06:30:50.243Z,0.51
2018-12-05T06:33:17.718Z,0.52
2018-12-05T06:35:45.827Z,0.53
2018-12-05T06:38:13.323Z,0.56
2018-12-05T06:40:40.807Z,0.58
2018-12-05T06:43:08.343Z,0.58
2018-12-05T06:45:35.998Z,0.63
2018-12-05T06:48:03.465Z,0.64
2018-12-05T06:50:30.937Z,0.58
2018-12-05T06:52:58.436Z,0.55
2018-12-05T06:55:25.891Z,0.52
2018-12-05T06:57:53.597Z,0.53
2018-12-05T07:00:21.051Z,0.52
2018-12-05T07:02:48.519Z,0.53
2018-12-05T07:05:16.061Z,0.52
2018-12-05T07:07:43.530Z,0.54
2018-12-05T07:10:11.000Z,0.56
2018-12-05T07:12:38.469Z,0.56
2018-12-05T07:15:06.327Z,0.54
2018-12-05T07:17:33.794Z,0.52
2018-12-05T07:20:01.281Z,0.49
2018-12-05T07:22:28.724Z,0.48
2018-12-05T07:24:56.233Z,0.44
2018-12-05T07:27:23.773Z,0.46
2018-12-05T07:29:51.259Z,0.50
2018-12-05T07:32:18.717Z,0.53
2018-12-05T07:34:46.868Z,0.54
2018-12-05T07:37:14.337Z,0.57
2018-12-05T07:39:41.789Z,0.56
2018-12-05T07:42:09.267Z,0.56
2018-12-05T07:44:36.738Z,0.64
2018-12-05T07:47:04.208Z,0.72
2018-12-05T07:49:31.688Z,0.79
2018-12-05T07:51:59.212Z,1.00
2018-12-05T07:54:26.726Z,1.15
2018-12-05T07:56:54.169Z,1.29
2018-12-05T07:59:21.613Z,1.32
2018-12-05T08:01:49.092Z,1.54
2018-12-05T08:04:16.552Z,1.87
2018-12-05T08:06:44.024Z,2.10
2018-12-05T08:09:11.512Z,2.09
2018-12-05T08:11:39.107Z,2.21
2018-12-05T08:14:06.761Z,2.31
2018-12-05T08:16:34.260Z,2.41
2018-12-05T08:19:01.734Z,2.54
2018-12-05T08:21:29.224Z,2.47
2018-12-05T08:23:56.694Z,2.62
2018-12-05T08:26:24.165Z,2.62
2018-12-05T08:28:51.731Z,2.86
2018-12-05T08:31:19.225Z,2.91
2018-12-05T08:33:46.701Z,2.83
2018-12-05T08:36:14.195Z,2.94
2018-12-05T08:38:41.686Z,3.27
2018-12-05T08:41:09.157Z,3.34
2018-12-05T08:43:36.622Z,3.68
2018-12-05T08:46:04.126Z,4.12
2018-12-05T08:48:31.603Z,4.28
2018-12-05T08:50:59.037Z,4.47
2018-12-05T08:53:26.525Z,4.62
2018-12-05T08:55:53.984Z,4.83
2018-12-05T08:58:21.452Z,5.05
2018-12-05T09:00:48.952Z,5.43
2018-12-05T09:03:16.460Z,5.68
2018-12-05T09:05:43.921Z,5.53
2018-12-05T09:08:11.388Z,5.92
2018-12-05T09:10:38.845Z,5.90
2018-12-05T09:13:06.368Z,5.85
2018-12-05T09:15:33.813Z,5.90
2018-12-05T09:18:01.299Z,5.78
2018-12-05T09:20:28.777Z,5.78
2018-12-05T09:22:56.242Z,6.40
2018-12-05T09:25:23.704Z,6.32
2018-12-05T09:27:51.147Z,6.14
2018-12-05T09:30:18.584Z,6.05
2018-12-05T09:32:46.724Z,6.19
2018-12-05T09:35:14.224Z,6.59
2018-12-05T09:37:41.679Z,6.37
2018-12-05T09:40:09.230Z,6.77
2018-12-05T09:42:37.171Z,7.06
2018-12-05T09:45:08.049Z,6.88
2018-12-05T09:47:35.607Z,6.97
2018-12-05T09:50:03.430Z,6.80
2018-12-05T09:52:30.907Z,6.93
2018-12-05T09:54:58.368Z,6.76
2018-12-05T09:57:25.836Z,6.23
2018-12-05T09:59:53.282Z,6.20
2018-12-05T10:02:20.774Z,5.80
2018-12-05T10:04:48.236Z,5.82
2018-12-05T10:07:16.081Z,5.63
2018-12-05T10:09:43.585Z,5.64
2018-12-05T10:12:11.123Z,5.45
2018-12-05T10:14:38.637Z,5.32
2018-12-05T10:17:06.092Z,5.24
2018-12-05T10:19:33.556Z,5.21
2018-12-05T10:22:01.007Z,5.13
2018-12-05T10:24:28.465Z,5.11
2018-12-05T10:26:55.940Z,5.13
2018-12-05T10:29:23.607Z,5.01
2018-12-05T10:31:51.053Z,5.08
2018-12-05T10:34:19.032Z,5.04
2018-12-05T10:36:46.512Z,5.07
2018-12-05T10:39:14.532Z,5.01
2018-12-05T10:41:42.026Z,5.04
2018-12-05T10:44:09.488Z,4.99
2018-12-05T10:46:36.951Z,5.00
2018-12-05T10:49:04.506Z,5.01
2018-12-05T10:51:31.964Z,5.06
2018-12-05T10:53:59.442Z,4.99
2018-12-05T10:56:26.937Z,4.90
2018-12-05T10:58:54.381Z,5.03
2018-12-05T11:01:27.428Z,5.19
2018-12-05T11:03:54.930Z,5.28
2018-12-05T11:06:27.908Z,5.29
2018-12-05T11:09:01.020Z,5.43
2018-12-05T11:11:34.326Z,5.43
2018-12-05T11:14:07.553Z,5.54
2018-12-05T11:16:38.856Z,5.53
2018-12-05T11:19:11.980Z,5.49
2018-12-05T11:21:49.691Z,5.48
2018-12-05T11:24:16.475Z,5.54
2018-12-05T11:26:43.939Z,5.51
2018-12-05T11:29:11.477Z,5.38
2018-12-05T11:31:38.929Z,5.43
2018-12-05T11:34:06.505Z,5.40
2018-12-05T11:36:34.013Z,5.43
2018-12-05T11:39:01.560Z,5.41
2018-12-05T11:41:28.998Z,5.29
2018-12-05T11:43:56.449Z,5.23
2018-12-05T11:46:23.898Z,5.25
2018-12-05T11:48:51.357Z,5.23
2018-12-05T11:51:18.922Z,5.32
2018-12-05T11:53:46.455Z,5.28
2018-12-05T11:56:13.987Z,5.37
2018-12-05T11:58:41.522Z,5.29
2018-12-05T12:01:09.056Z,5.35
2018-12-05T12:03:36.585Z,5.37
2018-12-05T12:06:04.107Z,5.38
2018-12-05T12:08:31.565Z,5.34
2018-12-05T12:11:01.053Z,5.38
2018-12-05T12:13:28.568Z,5.42
2018-12-05T12:15:56.160Z,5.36
2018-12-05T12:18:23.658Z,5.37
2018-12-05T12:20:51.160Z,5.32
2018-12-05T12:23:18.627Z,5.39
2018-12-05T12:25:46.965Z,5.45
2018-12-05T12:28:14.417Z,5.49
2018-12-05T12:30:41.876Z,5.44
2018-12-05T12:33:09.401Z,5.46
2018-12-05T12:35:36.853Z,5.44
2018-12-05T12:38:04.375Z,5.45
2018-12-05T12:40:32.013Z,5.47
2018-12-05T12:42:59.471Z,5.43
2018-12-05T12:45:26.929Z,5.51
2018-12-05T12:47:54.376Z,5.49
2018-12-05T12:50:21.830Z,5.59
2018-12-05T12:52:49.279Z,5.62
2018-12-05T12:55:16.767Z,5.62
2018-12-05T12:57:44.217Z,5.65
2018-12-05T13:00:11.725Z,5.63
2018-12-05T13:02:39.305Z,5.68
2018-12-05T13:05:07.406Z,5.67
2018-12-05T13:07:34.857Z,5.66
2018-12-05T13:10:02.355Z,5.66
2018-12-05T13:12:31.774Z,5.60
2018-12-05T13:14:59.250Z,5.55
2018-12-05T13:17:26.734Z,5.53
2018-12-05T13:19:54.174Z,5.48
2018-12-05T13:22:22.137Z,5.47
2018-12-05T13:24:49.574Z,5.42
2018-12-05T13:27:17.846Z,5.40
2018-12-05T13:29:45.305Z,5.38
2018-12-05T13:32:12.769Z,5.36
2018-12-05T13:34:40.243Z,5.31
2018-12-05T13:37:07.714Z,5.31
2018-12-05T13:39:35.205Z,5.26
2018-12-05T13:42:02.686Z,5.29
2018-12-05T13:44:30.183Z,5.28
2018-12-05T13:46:57.708Z,5.23
2018-12-05T13:49:25.220Z,5.17
2018-12-05T13:51:52.723Z,5.22
2018-12-05T13:54:20.340Z,5.10
2018-12-05T13:56:48.657Z,5.15
2018-12-05T13:59:16.114Z,5.15
2018-12-05T14:01:43.581Z,5.20
2018-12-05T14:04:11.103Z,5.29
2018-12-05T14:06:38.638Z,5.26
2018-12-05T14:09:06.824Z,5.30
2018-12-05T14:11:34.301Z,5.27
2018-12-05T14:14:01.777Z,5.26
2018-12-05T14:16:29.226Z,5.27
2018-12-05T14:18:56.670Z,5.28
2018-12-05T14:21:24.127Z,5.24
2018-12-05T14:23:51.594Z,5.13
2018-12-05T14:26:19.149Z,5.05
2018-12-05T14:28:46.623Z,5.07
2018-12-05T14:31:14.119Z,5.06
2018-12-05T14:33:41.589Z,4.97
2018-12-05T14:36:09.091Z,4.93
2018-12-05T14:38:36.608Z,4.89
2018-12-05T14:41:04.109Z,4.86
2018-12-05T14:43:31.633Z,4.85
2018-12-05T14:45:59.154Z,4.77
2018-12-05T14:48:27.204Z,4.81
2018-12-05T14:50:55.504Z,4.73
2018-12-05T14:53:23.005Z,4.73
2018-12-05T14:55:50.564Z,4.64
2018-12-05T14:58:18.038Z,4.63
2018-12-05T15:00:45.555Z,4.62
2018-12-05T15:03:13.085Z,4.57
2018-12-05T15:05:40.619Z,4.61
2018-12-05T15:08:08.108Z,4.51
2018-12-05T15:10:35.578Z,4.53
2018-12-05T15:13:03.058Z,4.42
2018-12-05T15:15:30.560Z,4.26
2018-12-05T15:17:58.106Z,4.22
2018-12-05T15:20:25.621Z,4.28
2018-12-05T15:22:53.784Z,4.24
2018-12-05T15:25:21.296Z,4.27
2018-12-05T15:27:48.761Z,4.23
2018-12-05T15:30:16.241Z,4.21
2018-12-05T15:32:43.709Z,4.19
2018-12-05T15:35:11.190Z,4.15
2018-12-05T15:37:38.638Z,4.14
2018-12-05T15:40:06.441Z,4.09
2018-12-05T15:42:35.642Z,4.06
2018-12-05T15:45:03.949Z,4.09
2018-12-05T15:47:31.414Z,4.05
2018-12-05T15:49:58.882Z,4.04
2018-12-05T15:52:26.945Z,4.03
2018-12-05T15:54:55.026Z,4.04
2018-12-05T15:57:22.632Z,4.08
2018-12-05T15:59:50.611Z,3.99
2018-12-05T16:02:19.616Z,3.95
2018-12-05T16:04:47.921Z,3.97
2018-12-05T16:07:15.536Z,3.95
2018-12-05T16:09:43.037Z,3.92
2018-12-05T16:12:10.521Z,3.99
2018-12-05T16:14:38.000Z,3.96
2018-12-05T16:17:05.526Z,3.97
2018-12-05T16:19:33.000Z,3.95
2018-12-05T16:22:00.470Z,3.95
2018-12-05T16:24:27.998Z,3.93
2018-12-05T16:26:55.529Z,4.01
2018-12-05T16:29:23.498Z,3.96
2018-12-05T16:31:50.944Z,3.96
2018-12-05T16:34:18.989Z,3.91
2018-12-05T16:36:46.548Z,3.89
2018-12-05T16:39:14.027Z,3.88
2018-12-05T16:41:41.548Z,3.91
2018-12-05T16:44:12.841Z,3.86
2018-12-05T16:46:38.553Z,3.86
2018-12-05T16:49:06.224Z,3.82
2018-12-05T16:51:33.672Z,3.82
2018-12-05T16:54:01.122Z,3.77
2018-12-05T16:56:29.145Z,3.77
2018-12-05T16:58:56.788Z,3.78
2018-12-05T17:01:24.404Z,3.71
2018-12-05T17:03:51.902Z,3.68
2018-12-05T17:06:19.378Z,3.68
2018-12-05T17:08:46.867Z,3.66
2018-12-05T17:11:14.373Z,3.69
2018-12-05T17:13:41.900Z,3.73
2018-12-05T17:16:17.717Z,3.75
2018-12-05T17:18:39.784Z,3.78
2018-12-05T17:21:07.706Z,3.78
2018-12-05T17:23:35.292Z,3.76
2018-12-05T17:26:05.704Z,3.83
2018-12-05T17:28:34.845Z,3.76
2018-12-05T17:31:02.474Z,3.76
2018-12-05T17:33:30.825Z,3.77
2018-12-05T17:35:59.444Z,3.75
2018-12-05T17:38:28.292Z,3.75
2018-12-05T17:40:56.842Z,3.74
2018-12-05T17:43:24.363Z,3.79
2018-12-05T17:45:53.033Z,3.76
2018-12-05T17:48:20.674Z,3.77
2018-12-05T17:50:48.344Z,3.77
2018-12-05T17:53:15.861Z,3.73
2018-12-05T17:55:44.528Z,3.74
2018-12-05T17:58:13.755Z,3.72
2018-12-05T18:00:43.196Z,3.71
2018-12-05T18:03:10.778Z,3.68
2018-12-05T18:05:39.219Z,3.65
2018-12-05T18:08:08.808Z,3.71
2018-12-05T18:10:36.270Z,3.66
2018-12-05T18:13:05.333Z,3.65
2018-12-05T18:15:34.072Z,3.63
2018-12-05T18:18:01.604Z,3.66
2018-12-05T18:20:29.099Z,3.66
2018-12-05T18:22:56.768Z,3.67
2018-12-05T18:25:24.308Z,3.64
2018-12-05T18:27:52.084Z,3.71
2018-12-05T18:30:19.763Z,3.69
2018-12-05T18:32:47.249Z,3.69
2018-12-05T18:35:14.948Z,3.68
2018-12-05T18:37:42.679Z,3.68
2018-12-05T18:40:10.297Z,3.75
2018-12-05T18:42:37.891Z,3.73
2018-12-05T18:45:06.679Z,3.68
2018-12-05T18:47:34.918Z,3.69
2018-12-05T18:50:03.326Z,3.69
2018-12-05T18:52:30.956Z,3.68
2018-12-05T18:54:58.425Z,3.69
2018-12-05T18:57:26.133Z,3.69
2018-12-05T19:00:01.091Z,3.71
2018-12-05T19:02:23.248Z,3.69
2018-12-05T19:04:50.697Z,3.71
2018-12-05T19:07:18.185Z,3.71
2018-12-05T19:09:45.650Z,3.71
2018-12-05T19:12:13.708Z,3.76
2018-12-05T19:14:45.079Z,3.74
2018-12-05T19:17:12.659Z,3.75
2018-12-05T19:19:40.705Z,3.78
2018-12-05T19:22:08.221Z,3.76
2018-12-05T19:24:35.737Z,3.78
2018-12-05T19:27:03.280Z,3.80
2018-12-05T19:29:30.754Z,3.80
2018-12-05T19:31:58.828Z,3.81
2018-12-05T19:34:26.289Z,3.81
2018-12-05T19:36:54.631Z,3.83
2018-12-05T19:39:22.075Z,3.80
2018-12-05T19:41:49.558Z,3.86
2018-12-05T19:44:17.821Z,3.85
2018-12-05T19:46:45.275Z,3.84
2018-12-05T19:49:12.744Z,3.88
2018-12-05T19:51:40.224Z,3.85
2018-12-05T19:54:08.616Z,3.83
2018-12-05T19:56:37.125Z,3.88
2018-12-05T19:59:04.600Z,3.86
2018-12-05T20:01:32.061Z,3.86
2018-12-05T20:03:59.518Z,3.88
2018-12-05T20:06:26.972Z,3.92
2018-12-05T20:08:54.408Z,3.92
2018-12-05T20:11:21.936Z,3.97
2018-12-05T20:13:49.396Z,3.98
2018-12-05T20:16:17.559Z,3.95
2018-12-05T20:18:45.081Z,3.98
2018-12-05T20:21:12.552Z,3.97
2018-12-05T20:23:40.053Z,3.99
2018-12-05T20:26:07.499Z,4.01
2018-12-05T20:28:34.985Z,3.99
2018-12-05T20:31:02.474Z,3.98
2018-12-05T20:33:29.941Z,4.03
2018-12-05T20:35:57.405Z,3.99
2018-12-05T20:38:24.895Z,4.03
2018-12-05T20:40:52.422Z,4.03
2018-12-05T20:43:19.977Z,4.07
2018-12-05T20:45:47.416Z,4.08
2018-12-05T20:48:15.550Z,4.11
2018-12-05T20:50:43.149Z,4.12
2018-12-05T20:53:11.531Z,4.13
2018-12-05T20:55:38.990Z,4.10
2018-12-05T20:58:06.441Z,4.13
2018-12-05T21:00:33.912Z,4.09
2018-12-05T21:03:01.377Z,4.13
2018-12-05T21:05:28.916Z,4.12
2018-12-05T21:07:56.881Z,4.08
2018-12-05T21:10:24.419Z,4.06
2018-12-05T21:12:52.162Z,4.09
2018-12-05T21:15:19.860Z,4.05
2018-12-05T21:17:48.145Z,4.02
2018-12-05T21:20:15.641Z,4.06
2018-12-05T21:22:47.198Z,4.08
2018-12-05T21:25:14.003Z,4.08
2018-12-05T21:27:43.631Z,4.09
2018-12-05T21:30:11.424Z,4.06
2018-12-05T21:32:38.906Z,4.05
2018-12-05T21:35:09.070Z,4.01
2018-12-05T21:37:36.769Z,4.05
2018-12-05T21:40:06.101Z,3.99
2018-12-05T21:42:33.693Z,3.97
2018-12-05T21:45:01.247Z,3.99
2018-12-05T21:47:28.764Z,3.95
2018-12-05T21:49:56.303Z,3.94
2018-12-05T21:52:23.793Z,3.97
2018-12-05T21:54:51.237Z,3.92
2018-12-05T21:57:18.873Z,3.90
2018-12-05T21:59:47.592Z,3.87
2018-12-05T22:02:15.238Z,3.89
2018-12-05T22:04:44.699Z,3.84
2018-12-05T22:07:12.191Z,3.91
2018-12-05T22:09:39.668Z,3.88
2018-12-05T22:12:07.466Z,3.87
2018-12-05T22:14:34.978Z,3.87
2018-12-05T22:17:02.680Z,3.87
2018-12-05T22:19:30.145Z,3.85
2018-12-05T22:21:59.712Z,3.88
2018-12-05T22:24:27.200Z,3.95
2018-12-05T22:26:55.065Z,3.92
2018-12-05T22:29:22.527Z,3.93
2018-12-05T22:31:50.476Z,3.92
2018-12-05T22:34:18.038Z,3.93
2018-12-05T22:36:45.514Z,3.93
2018-12-05T22:39:13.308Z,3.95
2018-12-05T22:41:40.764Z,3.94
2018-12-05T22:44:08.385Z,3.96
2018-12-05T22:46:36.073Z,3.93
2018-12-05T22:49:03.570Z,3.91
2018-12-05T22:51:31.348Z,3.88
2018-12-05T22:53:58.994Z,3.86
2018-12-05T22:56:26.448Z,3.86
2018-12-05T22:58:53.907Z,3.80
2018-12-05T23:01:21.521Z,3.85
2018-12-05T23:03:49.114Z,3.83
2018-12-05T23:06:17.556Z,3.79
2018-12-05T23:08:45.016Z,3.76
2018-12-05T23:11:13.291Z,3.78
2018-12-05T23:13:40.812Z,3.79
2018-12-05T23:16:08.264Z,3.77
2018-12-05T23:18:35.857Z,3.77
2018-12-05T23:21:03.387Z,3.77
2018-12-05T23:23:30.856Z,3.77
2018-12-05T23:26:33.257Z,3.77
2018-12-05T23:29:00.822Z,3.72
2018-12-05T23:31:28.299Z,3.75
2018-12-05T23:33:55.745Z,3.68
2018-12-05T23:36:23.196Z,3.65
2018-12-05T23:38:50.663Z,3.64
2018-12-05T23:41:18.154Z,3.65
2018-12-05T23:43:45.734Z,3.60
2018-12-05T23:46:13.221Z,3.57
2018-12-05T23:48:40.942Z,3.55
2018-12-05T23:51:08.378Z,3.56
2018-12-05T23:53:35.834Z,3.55
2018-12-05T23:56:06.525Z,3.55
2018-12-05T23:58:33.974Z,3.58
